createdAt,value
2018-07-19T00:00:20.249Z,99581.59
2018-07-19T00:04:23.745Z,99580.33
2018-07-19T00:08:27.222Z,99576.83
2018-07-19T00:12:30.693Z,99580.07
2018-07-19T00:16:35.835Z,99580.22
2018-07-19T00:20:39.308Z,99576.20
2018-07-19T00:24:42.813Z,99572.17
2018-07-19T00:28:46.291Z,99576.30
2018-07-19T00:32:49.805Z,99573.21
2018-07-19T00:36:53.289Z,99574.25
2018-07-19T00:40:56.786Z,99577.46
2018-07-19T00:45:00.271Z,99571.94
2018-07-19T00:49:03.730Z,99565.34
2018-07-19T00:53:07.233Z,99557.06
2018-07-19T00:57:10.903Z,99555.02
2018-07-19T01:01:14.457Z,99555.57
2018-07-19T01:05:17.890Z,99558.41
2018-07-19T01:09:21.376Z,99556.73
2018-07-19T01:13:24.844Z,99555.48
2018-07-19T01:17:28.402Z,99554.67
2018-07-19T01:21:33.947Z,99556.56
2018-07-19T01:25:37.586Z,99563.42
2018-07-19T01:29:41.085Z,99564.45
2018-07-19T01:33:44.590Z,99563.27
2018-07-19T01:37:48.067Z,99561.20
2018-07-19T01:42:32.667Z,99555.05
2018-07-19T01:46:36.155Z,99559.22
2018-07-19T01:50:39.633Z,99563.80
2018-07-19T01:54:43.449Z,99560.33
2018-07-19T01:58:46.939Z,99565.36
2018-07-19T02:02:56.233Z,99559.69
2018-07-19T02:06:59.662Z,99569.52
2018-07-19T02:11:03.135Z,99562.44
2018-07-19T02:15:06.969Z,99575.37
2018-07-19T02:19:10.967Z,99576.78
2018-07-19T02:23:14.457Z,99582.21
2018-07-19T02:27:17.945Z,99580.98
2018-07-19T02:31:21.367Z,99580.63
2018-07-19T02:35:24.828Z,99583.94
2018-07-19T02:39:28.284Z,99587.23
2018-07-19T02:43:31.743Z,99584.70
2018-07-19T02:47:36.038Z,99591.54
2018-07-19T02:51:40.508Z,99585.01
2018-07-19T02:55:43.995Z,99587.86
2018-07-19T02:59:47.555Z,99584.94
2018-07-19T03:03:51.066Z,99582.46
2018-07-19T03:07:54.585Z,99593.80
2018-07-19T03:11:58.062Z,99590.78
2018-07-19T03:16:01.536Z,99598.88
2018-07-19T03:20:05.001Z,99597.30
2018-07-19T03:24:08.493Z,99595.48
2018-07-19T03:28:11.991Z,99593.83
2018-07-19T03:32:15.430Z,99602.34
2018-07-19T03:36:18.904Z,99602.96
2018-07-19T03:40:22.426Z,99601.81
2018-07-19T03:44:25.948Z,99613.46
2018-07-19T03:48:29.457Z,99617.96
2018-07-19T03:52:32.955Z,99626.86
2018-07-19T03:56:36.474Z,99633.18
2018-07-19T04:00:39.984Z,99631.91
2018-07-19T04:04:43.481Z,99630.63
2018-07-19T04:08:46.973Z,99637.45
2018-07-19T04:12:50.451Z,99640.69
2018-07-19T04:16:53.957Z,99636.31
2018-07-19T04:20:57.468Z,99639.53
2018-07-19T04:25:00.980Z,99642.28
2018-07-19T04:29:04.442Z,99641.36
2018-07-19T04:33:07.948Z,99645.85
2018-07-19T04:37:11.430Z,99653.95
2018-07-19T04:41:14.932Z,99660.59
2018-07-19T04:45:18.438Z,99660.97
2018-07-19T04:49:21.963Z,99661.31
2018-07-19T04:53:25.446Z,99657.68
2018-07-19T04:57:28.913Z,99660.71
2018-07-19T05:01:32.366Z,99657.36
2018-07-19T05:05:35.851Z,99660.16
2018-07-19T05:09:39.306Z,99658.94
2018-07-19T05:13:42.769Z,99670.67
2018-07-19T05:17:46.283Z,99662.06
2018-07-19T05:21:49.770Z,99671.02
2018-07-19T05:25:53.176Z,99672.61
2018-07-19T05:29:56.632Z,99677.41
2018-07-19T05:34:00.105Z,99677.61
2018-07-19T05:38:03.587Z,99669.25
2018-07-19T05:42:07.088Z,99674.07
2018-07-19T05:46:10.540Z,99678.51
2018-07-19T05:50:14.015Z,99684.44
2018-07-19T05:54:17.486Z,99687.50
2018-07-19T05:58:21.059Z,99685.62
2018-07-19T06:02:24.468Z,99680.36
2018-07-19T06:06:27.929Z,99690.84
2018-07-19T06:10:31.381Z,99698.67
2018-07-19T06:14:34.859Z,99695.03
2018-07-19T06:18:38.358Z,99688.69
2018-07-19T06:22:41.801Z,99691.16
2018-07-19T06:26:45.272Z,99687.20
2018-07-19T06:30:48.722Z,99695.19
2018-07-19T06:34:52.171Z,99686.88
2018-07-19T06:38:55.698Z,99683.77
2018-07-19T06:42:59.162Z,99680.36
2018-07-19T06:47:02.640Z,99676.05
2018-07-19T06:51:06.486Z,99682.83
2018-07-19T06:55:09.958Z,99687.16
2018-07-19T06:59:13.427Z,99693.19
2018-07-19T07:03:16.963Z,99698.00
2018-07-19T07:07:20.421Z,99691.89
2018-07-19T07:11:24.022Z,99693.39
2018-07-19T07:15:27.482Z,99696.81
2018-07-19T07:19:30.939Z,99701.80
2018-07-19T07:23:34.379Z,99696.33
2018-07-19T07:27:37.845Z,99696.18
2018-07-19T07:31:41.320Z,99697.04
2018-07-19T07:35:45.226Z,99690.23
2018-07-19T07:39:48.741Z,99698.49
2018-07-19T07:43:52.199Z,99686.45
2018-07-19T07:47:55.660Z,99696.80
2018-07-19T07:51:59.312Z,99691.80
2018-07-19T07:56:02.771Z,99693.52
2018-07-19T08:00:07.179Z,99701.45
2018-07-19T08:04:10.603Z,99695.98
2018-07-19T08:08:14.050Z,99690.23
2018-07-19T08:12:17.519Z,99692.07
2018-07-19T08:16:21.010Z,99689.02
2018-07-19T08:20:24.429Z,99682.97
2018-07-19T08:24:27.931Z,99687.09
2018-07-19T08:28:31.389Z,99685.56
2018-07-19T08:32:35.039Z,99683.03
2018-07-19T08:36:38.527Z,99679.43
2018-07-19T08:40:42.000Z,99682.38
2018-07-19T08:44:45.471Z,99676.41
2018-07-19T08:48:48.929Z,99681.25
2018-07-19T08:52:52.374Z,99665.99
2018-07-19T08:56:55.827Z,99660.88
2018-07-19T09:00:59.263Z,99665.04
2018-07-19T09:05:02.718Z,99660.53
2018-07-19T09:09:08.477Z,99660.49
2018-07-19T09:13:11.928Z,99656.38
2018-07-19T09:17:15.445Z,99651.42
2018-07-19T09:21:18.883Z,99658.37
2018-07-19T09:25:22.430Z,99648.44
2018-07-19T09:29:25.905Z,99656.98
2018-07-19T09:33:29.400Z,99652.25
2018-07-19T09:37:32.855Z,99637.44
2018-07-19T09:41:36.275Z,99636.83
2018-07-19T09:45:39.720Z,99638.58
2018-07-19T09:49:43.189Z,99634.33
2018-07-19T09:53:46.699Z,99637.08
2018-07-19T09:57:50.182Z,99636.22
2018-07-19T10:01:53.695Z,99634.87
2018-07-19T10:05:57.106Z,99630.39
2018-07-19T10:10:00.543Z,99638.26
2018-07-19T10:14:04.241Z,99632.67
2018-07-19T10:18:07.730Z,99636.55
2018-07-19T10:22:11.197Z,99633.76
2018-07-19T10:26:14.670Z,99634.28
2018-07-19T10:30:18.177Z,99632.84
2018-07-19T10:34:21.702Z,99640.98
2018-07-19T10:38:25.177Z,99632.32
2018-07-19T10:42:28.753Z,99632.93
2018-07-19T10:46:32.202Z,99619.91
2018-07-19T10:50:35.681Z,99629.95
2018-07-19T10:54:39.094Z,99633.52
2018-07-19T10:58:42.589Z,99635.36
2018-07-19T11:02:46.053Z,99626.63
2018-07-19T11:06:49.493Z,99633.42
2018-07-19T11:10:52.936Z,99616.02
2018-07-19T11:14:56.400Z,99620.31
2018-07-19T11:18:59.856Z,99615.08
2018-07-19T11:23:03.314Z,99614.70
2018-07-19T11:27:06.787Z,99620.59
2018-07-19T11:31:10.234Z,99612.59
2018-07-19T11:35:13.722Z,99606.72
2018-07-19T11:39:17.212Z,99608.81
2018-07-19T11:43:21.687Z,99604.41
2018-07-19T11:47:25.117Z,99603.45
2018-07-19T11:51:28.593Z,99607.91
2018-07-19T11:55:32.091Z,99597.70
2018-07-19T11:59:35.529Z,99602.39
2018-07-19T12:03:39.055Z,99600.68
2018-07-19T12:07:42.545Z,99597.98
2018-07-19T12:11:45.993Z,99593.17
2018-07-19T12:15:50.079Z,99591.94
2018-07-19T12:19:53.574Z,99591.94
2018-07-19T12:23:57.031Z,99602.28
2018-07-19T12:28:00.555Z,99600.94
2018-07-19T12:32:04.011Z,99600.07
2018-07-19T12:36:07.630Z,99590.22
2018-07-19T12:40:11.077Z,99590.22
2018-07-19T12:44:14.563Z,99595.02
2018-07-19T12:48:18.010Z,99587.97
2018-07-19T12:52:21.511Z,99572.69
2018-07-19T12:56:24.950Z,99578.50
2018-07-19T13:00:28.465Z,99570.11
2018-07-19T13:04:31.938Z,99577.23
2018-07-19T13:08:35.368Z,99586.47
2018-07-19T13:12:38.795Z,99579.18
2018-07-19T13:16:42.303Z,99574.23
2018-07-19T13:20:45.818Z,99563.70
2018-07-19T13:24:49.534Z,99562.09
2018-07-19T13:28:52.947Z,99556.92
2018-07-19T13:32:56.402Z,99560.09
2018-07-19T13:36:59.863Z,99548.84
2018-07-19T13:41:03.408Z,99549.91
2018-07-19T13:45:07.259Z,99542.34
2018-07-19T13:49:10.833Z,99552.59
2018-07-19T13:53:37.734Z,99552.55
2018-07-19T13:57:41.187Z,99550.84
2018-07-19T14:01:44.911Z,99538.65
2018-07-19T14:05:48.535Z,99535.25
2018-07-19T14:09:52.056Z,99534.53
2018-07-19T14:13:55.591Z,99530.11
2018-07-19T14:17:59.070Z,99532.88
2018-07-19T14:22:02.620Z,99522.59
2018-07-19T14:26:06.430Z,99524.12
2018-07-19T14:30:09.933Z,99528.97
2018-07-19T14:34:13.605Z,99521.66
2018-07-19T14:38:17.851Z,99519.53
2018-07-19T14:42:21.917Z,99521.27
2018-07-19T14:46:25.542Z,99523.27
2018-07-19T14:50:29.027Z,99524.51
2018-07-19T14:54:32.536Z,99515.54
2018-07-19T14:58:36.167Z,99521.23
2018-07-19T15:02:40.014Z,99515.07
2018-07-19T15:06:43.447Z,99510.23
2018-07-19T15:10:46.942Z,99512.73
2018-07-19T15:14:50.765Z,99500.04
2018-07-19T15:18:54.270Z,99503.52
2018-07-19T15:22:57.749Z,99501.53
2018-07-19T15:27:01.223Z,99500.30
2018-07-19T15:31:04.702Z,99498.34
2018-07-19T15:35:08.173Z,99508.14
2018-07-19T15:39:11.610Z,99496.06
2018-07-19T15:43:15.007Z,99502.73
2018-07-19T15:47:18.476Z,99487.70
2018-07-19T15:51:21.952Z,99488.33
2018-07-19T15:55:25.435Z,99490.56
2018-07-19T15:59:28.825Z,99493.05
2018-07-19T16:03:32.280Z,99487.14
2018-07-19T16:07:35.761Z,99491.88
2018-07-19T16:11:39.202Z,99490.47
2018-07-19T16:15:42.688Z,99489.13
2018-07-19T16:19:46.155Z,99486.05
2018-07-19T16:23:49.648Z,99480.91
2018-07-19T16:27:53.135Z,99484.59
2018-07-19T16:31:56.603Z,99489.92
2018-07-19T16:36:00.089Z,99485.48
2018-07-19T16:40:03.527Z,99481.53
2018-07-19T16:44:07.191Z,99468.84
2018-07-19T16:48:10.702Z,99473.27
2018-07-19T16:52:14.139Z,99473.05
2018-07-19T16:56:17.621Z,99469.84
2018-07-19T17:00:21.092Z,99475.13
2018-07-19T17:04:24.565Z,99463.28
2018-07-19T17:08:28.046Z,99471.05
2018-07-19T17:12:31.606Z,99461.68
2018-07-19T17:16:35.049Z,99472.03
2018-07-19T17:20:38.518Z,99471.77
2018-07-19T17:24:41.997Z,99472.39
2018-07-19T17:28:45.451Z,99467.08
2018-07-19T17:32:48.882Z,99469.18
2018-07-19T17:36:52.363Z,99479.29
2018-07-19T17:40:55.814Z,99473.25
2018-07-19T17:44:59.263Z,99477.94
2018-07-19T17:49:02.715Z,99485.19
2018-07-19T17:53:06.674Z,99487.27
2018-07-19T17:57:10.190Z,99483.28
2018-07-19T18:01:13.693Z,99482.39
2018-07-19T18:05:17.199Z,99496.91
2018-07-19T18:09:20.670Z,99495.16
2018-07-19T18:13:24.166Z,99494.30
2018-07-19T18:17:27.639Z,99501.52
2018-07-19T18:21:31.152Z,99506.69
2018-07-19T18:25:34.624Z,99511.42
2018-07-19T18:29:38.100Z,99509.55
2018-07-19T18:33:41.628Z,99508.48
2018-07-19T18:37:45.110Z,99517.69
2018-07-19T18:41:48.561Z,99520.09
2018-07-19T18:45:52.040Z,99524.45
2018-07-19T18:49:55.454Z,99533.61
2018-07-19T18:53:59.001Z,99528.02
2018-07-19T18:58:02.486Z,99539.13
2018-07-19T19:02:06.037Z,99548.09
2018-07-19T19:06:09.550Z,99555.98
2018-07-19T19:10:12.991Z,99558.00
2018-07-19T19:14:16.408Z,99565.63
2018-07-19T19:18:19.882Z,99571.89
2018-07-19T19:22:23.351Z,99584.08
2018-07-19T19:26:26.862Z,99581.66
2018-07-19T19:30:30.317Z,99583.84
2018-07-19T19:34:33.785Z,99585.06
2018-07-19T19:38:37.267Z,99584.95
2018-07-19T19:42:40.730Z,99586.83
2018-07-19T19:46:44.191Z,99585.31
2018-07-19T19:50:47.666Z,99590.02
2018-07-19T19:54:51.448Z,99594.81
2018-07-19T19:58:55.070Z,99596.68
2018-07-19T20:02:58.492Z,99598.54
2018-07-19T20:07:01.887Z,99610.40
2018-07-19T20:11:05.267Z,99609.73
2018-07-19T20:15:08.672Z,99612.23
2018-07-19T20:19:12.088Z,99620.06
2018-07-19T20:23:17.669Z,99616.75
2018-07-19T20:27:21.047Z,99626.81
2018-07-19T20:31:24.469Z,99628.25
2018-07-19T20:35:27.900Z,99632.46
2018-07-19T20:39:31.283Z,99630.73
2018-07-19T20:43:35.677Z,99636.88
2018-07-19T20:47:39.058Z,99638.21
2018-07-19T20:51:42.512Z,99634.70
2018-07-19T20:55:45.891Z,99641.86
2018-07-19T20:59:49.394Z,99644.62
2018-07-19T21:03:52.916Z,99642.44
2018-07-19T21:07:56.557Z,99648.20
2018-07-19T21:11:59.977Z,99653.46
2018-07-19T21:16:03.465Z,99649.27
2018-07-19T21:20:06.943Z,99655.52
2018-07-19T21:24:10.319Z,99657.11
2018-07-19T21:28:13.717Z,99659.67
2018-07-19T21:32:17.162Z,99666.25
2018-07-19T21:36:20.652Z,99663.34
2018-07-19T21:40:24.036Z,99662.73
2018-07-19T21:44:27.469Z,99667.88
2018-07-19T21:48:31.013Z,99669.95
2018-07-19T21:52:34.420Z,99671.62
2018-07-19T21:56:37.816Z,99676.38
2018-07-19T22:00:46.406Z,99673.63
2018-07-19T22:04:49.781Z,99672.53
2018-07-19T22:08:53.192Z,99673.17
2018-07-19T22:12:56.576Z,99683.15
2018-07-19T22:16:59.997Z,99677.55
2018-07-19T22:21:03.374Z,99683.24
2018-07-19T22:25:06.977Z,99686.80
2018-07-19T22:29:10.369Z,99686.36
2018-07-19T22:33:13.761Z,99688.62
2018-07-19T22:37:17.158Z,99690.38
2018-07-19T22:41:20.735Z,99691.87
2018-07-19T22:45:24.644Z,99695.67
2018-07-19T22:49:28.221Z,99698.66
2018-07-19T22:53:33.952Z,99701.50
2018-07-19T22:57:37.408Z,99693.99
2018-07-19T23:01:40.860Z,99700.86
2018-07-19T23:05:44.373Z,99712.37
2018-07-19T23:09:47.888Z,99700.62
2018-07-19T23:13:51.473Z,99707.55
2018-07-19T23:17:55.317Z,99706.53
2018-07-19T23:21:59.009Z,99711.56
2018-07-19T23:26:03.033Z,99712.42
2018-07-19T23:30:07.023Z,99710.30
2018-07-19T23:34:12.302Z,99715.66
2018-07-19T23:38:23.614Z,99721.59
2018-07-19T23:42:46.892Z,99713.30
2018-07-19T23:47:25.799Z,99720.56
2018-07-19T23:51:30.476Z,99721.64
2018-07-19T23:55:34.912Z,99721.26
2018-07-19T23:59:39.620Z,99720.95
